createdAt,value
2018-04-07T00:02:19.258Z,7.77
2018-04-07T00:05:21.727Z,7.85
2018-04-07T00:08:24.254Z,7.79
2018-04-07T00:11:26.832Z,7.72
2018-04-07T00:14:29.354Z,7.69
2018-04-07T00:17:31.912Z,7.58
2018-04-07T00:20:34.395Z,7.65
2018-04-07T00:23:36.909Z,7.78
2018-04-07T00:26:39.382Z,7.72
2018-04-07T00:29:41.963Z,7.69
2018-04-07T00:32:44.518Z,7.76
2018-04-07T00:35:46.954Z,7.74
2018-04-07T00:38:49.531Z,7.82
2018-04-07T00:41:52.114Z,7.81
2018-04-07T00:44:54.598Z,7.69
2018-04-07T00:47:57.088Z,7.64
2018-04-07T00:50:59.593Z,7.71
2018-04-07T00:54:02.061Z,7.47
2018-04-07T00:57:04.581Z,7.44
2018-04-07T01:00:07.173Z,7.39
2018-04-07T01:03:09.742Z,7.31
2018-04-07T01:06:12.181Z,7.39
2018-04-07T01:09:14.684Z,7.24
2018-04-07T01:12:17.199Z,7.28
2018-04-07T01:15:19.723Z,7.16
2018-04-07T01:18:22.225Z,6.99
2018-04-07T01:21:24.674Z,7.02
2018-04-07T01:24:27.163Z,6.95
2018-04-07T01:27:29.629Z,6.95
2018-04-07T01:30:32.193Z,6.93
2018-04-07T01:33:34.660Z,6.81
2018-04-07T01:36:37.190Z,6.83
2018-04-07T01:39:39.751Z,6.69
2018-04-07T01:42:42.270Z,6.75
2018-04-07T01:45:44.744Z,6.71
2018-04-07T01:48:47.180Z,6.58
2018-04-07T01:51:49.727Z,6.45
2018-04-07T01:54:52.215Z,6.57
2018-04-07T01:57:54.660Z,6.64
2018-04-07T02:00:57.189Z,6.64
2018-04-07T02:03:59.655Z,6.54
2018-04-07T02:07:02.234Z,6.69
2018-04-07T02:10:04.690Z,6.63
2018-04-07T02:13:07.187Z,6.59
2018-04-07T02:16:09.659Z,6.54
2018-04-07T02:19:12.130Z,6.37
2018-04-07T02:22:14.643Z,6.25
2018-04-07T02:25:17.101Z,6.26
2018-04-07T02:28:19.664Z,6.24
2018-04-07T02:31:22.202Z,6.10
2018-04-07T02:34:24.641Z,5.91
2018-04-07T02:37:27.168Z,5.86
2018-04-07T02:40:29.626Z,5.68
2018-04-07T02:43:32.100Z,5.64
2018-04-07T02:46:34.609Z,5.51
2018-04-07T02:49:37.110Z,5.31
2018-04-07T02:52:39.560Z,5.05
2018-04-07T02:55:42.036Z,5.03
2018-04-07T02:58:44.516Z,5.11
2018-04-07T03:01:47.034Z,5.24
2018-04-07T03:04:49.592Z,5.30
2018-04-07T03:07:52.077Z,5.25
2018-04-07T03:10:54.516Z,5.20
2018-04-07T03:13:57.080Z,5.26
2018-04-07T03:16:59.641Z,5.33
2018-04-07T03:20:02.206Z,5.50
2018-04-07T03:23:04.663Z,5.57
2018-04-07T03:26:07.151Z,5.42
2018-04-07T03:29:09.607Z,5.36
2018-04-07T03:32:12.775Z,5.36
2018-04-07T03:35:16.044Z,5.25
2018-04-07T03:38:18.570Z,5.24
2018-04-07T03:41:22.466Z,5.47
2018-04-07T03:44:25.054Z,5.46
2018-04-07T03:47:27.527Z,5.43
2018-04-07T03:50:30.196Z,5.46
2018-04-07T03:53:32.748Z,5.37
2018-04-07T03:56:35.315Z,5.21
2018-04-07T03:59:37.831Z,5.41
2018-04-07T04:02:40.338Z,5.62
2018-04-07T04:05:42.819Z,5.75
2018-04-07T04:08:45.282Z,5.84
2018-04-07T04:11:47.722Z,5.91
2018-04-07T04:14:50.284Z,5.96
2018-04-07T04:17:52.850Z,6.01
2018-04-07T04:20:55.351Z,5.99
2018-04-07T04:23:57.826Z,5.75
2018-04-07T04:27:00.323Z,5.62
2018-04-07T04:30:02.800Z,5.67
2018-04-07T04:33:05.357Z,5.69
2018-04-07T04:36:07.820Z,6.08
2018-04-07T04:39:10.376Z,5.90
2018-04-07T04:42:12.937Z,5.89
2018-04-07T04:45:15.521Z,5.85
2018-04-07T04:48:18.016Z,6.17
2018-04-07T04:51:20.483Z,6.16
2018-04-07T04:54:23.042Z,6.04
2018-04-07T04:57:25.532Z,6.10
2018-04-07T05:00:29.140Z,6.37
2018-04-07T05:03:31.903Z,7.33
2018-04-07T05:06:34.454Z,7.54
2018-04-07T05:09:37.027Z,7.75
2018-04-07T05:12:39.536Z,7.83
2018-04-07T05:15:42.038Z,8.33
2018-04-07T05:18:44.506Z,8.71
2018-04-07T05:21:47.000Z,9.52
2018-04-07T05:24:49.525Z,10.70
2018-04-07T05:27:52.062Z,11.09
2018-04-07T05:30:54.528Z,11.62
2018-04-07T05:33:57.043Z,11.04
2018-04-07T05:36:59.556Z,11.09
2018-04-07T05:40:02.042Z,10.13
2018-04-07T05:43:04.517Z,10.28
2018-04-07T05:46:07.095Z,10.71
2018-04-07T05:49:09.598Z,11.37
2018-04-07T05:52:12.122Z,10.67
2018-04-07T05:55:14.640Z,10.83
2018-04-07T05:58:17.158Z,10.84
2018-04-07T06:01:19.633Z,10.21
2018-04-07T06:04:22.141Z,10.08
2018-04-07T06:07:24.642Z,9.93
2018-04-07T06:10:27.153Z,9.57
2018-04-07T06:13:29.649Z,9.96
2018-04-07T06:16:32.097Z,9.77
2018-04-07T06:19:34.742Z,9.66
2018-04-07T06:22:37.203Z,10.25
2018-04-07T06:25:39.684Z,10.31
2018-04-07T06:28:42.196Z,11.38
2018-04-07T06:31:44.658Z,12.44
2018-04-07T06:34:47.263Z,11.29
2018-04-07T06:37:49.761Z,11.90
2018-04-07T06:40:57.303Z,13.04
2018-04-07T06:43:59.753Z,11.93
2018-04-07T06:47:02.264Z,11.27
2018-04-07T06:50:04.707Z,10.81
2018-04-07T06:53:07.192Z,10.28
2018-04-07T06:56:09.653Z,10.22
2018-04-07T06:59:12.166Z,10.10
2018-04-07T07:02:14.614Z,10.30
2018-04-07T07:05:17.111Z,10.54
2018-04-07T07:08:19.637Z,10.81
2018-04-07T07:11:22.156Z,10.85
2018-04-07T07:14:24.641Z,10.72
2018-04-07T07:17:27.167Z,10.71
2018-04-07T07:20:29.713Z,10.82
2018-04-07T07:23:32.194Z,10.92
2018-04-07T07:26:34.664Z,10.82
2018-04-07T07:29:37.281Z,11.00
2018-04-07T07:32:39.803Z,11.11
2018-04-07T07:35:42.277Z,11.44
2018-04-07T07:38:44.963Z,11.61
2018-04-07T07:41:47.445Z,11.44
2018-04-07T07:44:50.004Z,11.72
2018-04-07T07:47:52.507Z,11.85
2018-04-07T07:50:55.042Z,11.87
2018-04-07T07:53:57.618Z,11.70
2018-04-07T07:57:00.239Z,11.91
2018-04-07T08:00:02.790Z,11.69
2018-04-07T08:03:05.318Z,11.96
2018-04-07T08:06:07.814Z,12.06
2018-04-07T08:09:10.240Z,12.23
2018-04-07T08:12:12.744Z,12.31
2018-04-07T08:15:15.213Z,12.59
2018-04-07T08:18:17.827Z,12.65
2018-04-07T08:21:20.335Z,12.97
2018-04-07T08:24:22.885Z,12.94
2018-04-07T08:27:25.386Z,12.84
2018-04-07T08:30:27.904Z,13.26
2018-04-07T08:33:30.419Z,13.30
2018-04-07T08:36:32.960Z,13.33
2018-04-07T08:39:35.460Z,13.38
2018-04-07T08:42:39.064Z,13.67
2018-04-07T08:45:41.608Z,13.68
2018-04-07T08:48:44.132Z,13.78
2018-04-07T08:51:46.614Z,13.98
2018-04-07T08:54:49.095Z,13.94
2018-04-07T08:57:51.699Z,14.20
2018-04-07T09:00:54.323Z,14.29
2018-04-07T09:03:56.848Z,14.33
2018-04-07T09:06:59.351Z,14.58
2018-04-07T09:10:01.824Z,14.50
2018-04-07T09:13:04.309Z,14.51
2018-04-07T09:16:06.794Z,14.57
2018-04-07T09:19:09.339Z,14.95
2018-04-07T09:22:11.915Z,14.92
2018-04-07T09:25:14.459Z,14.84
2018-04-07T09:28:16.943Z,15.07
2018-04-07T09:31:25.413Z,15.13
2018-04-07T09:34:27.874Z,15.32
2018-04-07T09:37:30.409Z,15.29
2018-04-07T09:40:33.004Z,15.37
2018-04-07T09:43:35.490Z,15.29
2018-04-07T09:46:37.963Z,15.33
2018-04-07T09:49:40.519Z,15.32
2018-04-07T09:52:43.026Z,15.47
2018-04-07T09:55:45.541Z,15.56
2018-04-07T09:58:48.006Z,15.43
2018-04-07T10:01:50.476Z,15.53
2018-04-07T10:04:52.971Z,15.78
2018-04-07T10:07:56.607Z,15.86
2018-04-07T10:10:59.191Z,15.80
2018-04-07T10:14:01.725Z,15.61
2018-04-07T10:17:04.261Z,15.83
2018-04-07T10:20:06.810Z,15.89
2018-04-07T10:23:09.324Z,16.24
2018-04-07T10:26:12.072Z,16.26
2018-04-07T10:29:14.545Z,16.26
2018-04-07T10:32:17.046Z,16.31
2018-04-07T10:35:19.586Z,16.58
2018-04-07T10:38:22.066Z,16.48
2018-04-07T10:41:24.550Z,16.56
2018-04-07T10:44:27.130Z,16.65
2018-04-07T10:47:29.573Z,16.74
2018-04-07T10:50:32.115Z,16.82
2018-04-07T10:53:34.626Z,16.98
2018-04-07T10:56:37.116Z,17.06
2018-04-07T10:59:39.617Z,17.19
2018-04-07T11:02:42.102Z,17.24
2018-04-07T11:05:44.760Z,17.29
2018-04-07T11:08:47.242Z,17.49
2018-04-07T11:11:49.767Z,17.41
2018-04-07T11:14:52.243Z,17.61
2018-04-07T11:17:54.735Z,17.62
2018-04-07T11:20:57.206Z,17.84
2018-04-07T11:23:59.722Z,17.83
2018-04-07T11:27:02.322Z,18.05
2018-04-07T11:30:04.855Z,18.08
2018-04-07T11:33:07.411Z,18.06
2018-04-07T11:36:09.872Z,18.11
2018-04-07T11:39:12.346Z,18.26
2018-04-07T11:42:14.896Z,18.49
2018-04-07T11:45:17.398Z,18.46
2018-04-07T11:48:19.892Z,18.41
2018-04-07T11:51:22.401Z,18.53
2018-04-07T11:54:24.895Z,18.58
2018-04-07T11:57:27.412Z,18.55
2018-04-07T12:00:29.984Z,18.72
2018-04-07T12:03:32.462Z,19.00
2018-04-07T12:06:34.985Z,18.91
2018-04-07T12:09:37.557Z,18.98
2018-04-07T12:12:40.047Z,19.21
2018-04-07T12:15:42.622Z,19.20
2018-04-07T12:18:45.171Z,19.20
2018-04-07T12:21:47.716Z,19.41
2018-04-07T12:24:50.170Z,19.35
2018-04-07T12:27:52.732Z,19.44
2018-04-07T12:30:55.294Z,19.52
2018-04-07T12:33:57.879Z,19.43
2018-04-07T12:37:00.373Z,19.37
2018-04-07T12:40:02.838Z,19.65
2018-04-07T12:43:05.346Z,19.70
2018-04-07T12:46:07.817Z,19.69
2018-04-07T12:49:10.363Z,19.83
2018-04-07T12:52:12.883Z,19.86
2018-04-07T12:55:15.483Z,19.75
2018-04-07T12:58:17.981Z,19.88
2018-04-07T13:01:20.444Z,19.95
2018-04-07T13:04:23.057Z,19.99
2018-04-07T13:07:25.547Z,20.11
2018-04-07T13:10:28.022Z,20.47
2018-04-07T13:13:31.505Z,20.49
2018-04-07T13:16:33.983Z,20.64
2018-04-07T13:19:36.607Z,20.64
2018-04-07T13:22:39.166Z,20.58
2018-04-07T13:25:41.672Z,20.71
2018-04-07T13:28:44.156Z,20.81
2018-04-07T13:31:46.757Z,20.95
2018-04-07T13:34:49.223Z,20.95
2018-04-07T13:37:51.727Z,20.91
2018-04-07T13:40:54.234Z,20.94
2018-04-07T13:43:56.741Z,21.09
2018-04-07T13:46:59.218Z,21.21
2018-04-07T13:50:01.723Z,21.40
2018-04-07T13:53:05.021Z,21.38
2018-04-07T13:56:07.562Z,21.31
2018-04-07T13:59:10.074Z,21.20
2018-04-07T14:02:12.682Z,21.27
2018-04-07T14:05:15.226Z,21.53
2018-04-07T14:08:18.729Z,21.79
2018-04-07T14:11:21.251Z,21.46
2018-04-07T14:14:23.784Z,21.65
2018-04-07T14:17:26.342Z,21.55
2018-04-07T14:20:28.884Z,21.07
2018-04-07T14:23:31.382Z,21.43
2018-04-07T14:26:33.907Z,21.61
2018-04-07T14:29:36.418Z,21.34
2018-04-07T14:32:38.894Z,21.51
2018-04-07T14:35:41.408Z,21.42
2018-04-07T14:38:43.958Z,21.50
2018-04-07T14:41:46.557Z,21.54
2018-04-07T14:44:49.103Z,21.48
2018-04-07T14:47:51.622Z,21.59
2018-04-07T14:50:54.109Z,21.65
2018-04-07T14:53:56.633Z,21.67
2018-04-07T14:56:59.159Z,21.77
2018-04-07T15:00:01.614Z,21.87
2018-04-07T15:03:04.124Z,21.90
2018-04-07T15:06:06.774Z,21.75
2018-04-07T15:09:09.294Z,21.75
2018-04-07T15:12:11.834Z,21.78
2018-04-07T15:15:14.360Z,21.75
2018-04-07T15:18:16.852Z,21.69
2018-04-07T15:21:19.423Z,21.67
2018-04-07T15:24:22.059Z,21.74
2018-04-07T15:27:24.584Z,21.61
2018-04-07T15:30:27.209Z,21.57
2018-04-07T15:33:29.707Z,21.74
2018-04-07T15:36:32.297Z,21.68
2018-04-07T15:39:34.898Z,21.66
2018-04-07T15:42:37.472Z,21.47
2018-04-07T15:45:40.030Z,21.59
2018-04-07T15:48:42.530Z,21.54
2018-04-07T15:51:44.969Z,21.64
2018-04-07T15:54:48.432Z,21.57
2018-04-07T15:57:50.999Z,21.44
2018-04-07T16:00:53.467Z,21.44
2018-04-07T16:03:55.935Z,21.32
2018-04-07T16:06:58.419Z,21.21
2018-04-07T16:10:01.053Z,21.05
2018-04-07T16:13:03.572Z,21.08
2018-04-07T16:16:06.091Z,21.04
2018-04-07T16:19:09.550Z,20.89
2018-04-07T16:22:12.019Z,20.95
2018-04-07T16:25:14.520Z,20.70
2018-04-07T16:28:17.130Z,20.79
2018-04-07T16:31:20.488Z,20.69
2018-04-07T16:34:23.001Z,20.68
2018-04-07T16:37:25.450Z,20.80
2018-04-07T16:40:28.000Z,20.71
2018-04-07T16:43:30.575Z,20.46
2018-04-07T16:46:33.131Z,20.53
2018-04-07T16:49:35.676Z,20.57
2018-04-07T16:52:38.184Z,20.50
2018-04-07T16:55:40.680Z,20.49
2018-04-07T16:58:43.220Z,20.29
2018-04-07T17:01:45.739Z,20.54
2018-04-07T17:04:48.315Z,20.49
2018-04-07T17:07:50.865Z,20.48
2018-04-07T17:10:53.390Z,20.32
2018-04-07T17:13:56.094Z,20.22
2018-04-07T17:16:58.668Z,20.18
2018-04-07T17:20:01.165Z,20.30
2018-04-07T17:23:03.670Z,20.13
2018-04-07T17:26:06.175Z,20.30
2018-04-07T17:29:08.677Z,20.20
2018-04-07T17:32:11.214Z,19.80
2018-04-07T17:35:13.744Z,19.56
2018-04-07T17:38:16.323Z,19.38
2018-04-07T17:41:20.076Z,19.41
2018-04-07T17:44:22.559Z,19.30
2018-04-07T17:47:25.799Z,19.22
2018-04-07T17:50:28.411Z,19.16
2018-04-07T17:53:30.862Z,18.94
2018-04-07T17:56:33.379Z,18.62
2018-04-07T17:59:35.954Z,18.70
2018-04-07T18:02:38.480Z,18.36
2018-04-07T18:05:40.994Z,18.27
2018-04-07T18:08:43.495Z,18.21
2018-04-07T18:11:46.013Z,18.04
2018-04-07T18:14:48.575Z,17.91
2018-04-07T18:17:51.231Z,18.04
2018-04-07T18:20:53.914Z,17.68
2018-04-07T18:23:56.470Z,17.74
2018-04-07T18:26:59.147Z,17.52
2018-04-07T18:30:01.681Z,17.54
2018-04-07T18:33:04.261Z,17.58
2018-04-07T18:36:06.736Z,17.38
2018-04-07T18:39:09.285Z,17.26
2018-04-07T18:42:11.840Z,17.38
2018-04-07T18:45:14.354Z,17.18
2018-04-07T18:48:16.980Z,17.11
2018-04-07T18:51:19.487Z,17.07
2018-04-07T18:54:21.956Z,17.00
2018-04-07T18:57:24.522Z,16.94
2018-04-07T19:00:27.035Z,16.90
2018-04-07T19:03:29.564Z,16.76
2018-04-07T19:06:32.048Z,16.77
2018-04-07T19:09:34.626Z,16.65
2018-04-07T19:12:37.273Z,16.55
2018-04-07T19:15:39.860Z,16.51
2018-04-07T19:18:42.406Z,16.33
2018-04-07T19:21:44.925Z,16.39
2018-04-07T19:24:47.392Z,16.35
2018-04-07T19:27:49.902Z,16.29
2018-04-07T19:30:52.442Z,16.17
2018-04-07T19:33:54.962Z,16.11
2018-04-07T19:36:57.467Z,16.21
2018-04-07T19:39:59.977Z,16.22
2018-04-07T19:43:02.542Z,16.39
2018-04-07T19:46:05.076Z,16.32
2018-04-07T19:49:07.610Z,16.39
2018-04-07T19:52:10.217Z,16.36
2018-04-07T19:55:12.749Z,16.22
2018-04-07T19:58:15.307Z,16.34
2018-04-07T20:01:18.128Z,16.18
2018-04-07T20:04:20.610Z,16.00
2018-04-07T20:07:23.175Z,15.89
2018-04-07T20:10:25.754Z,16.19
2018-04-07T20:13:29.244Z,15.84
2018-04-07T20:16:31.804Z,15.70
2018-04-07T20:19:34.477Z,15.37
2018-04-07T20:22:36.993Z,15.25
2018-04-07T20:25:39.533Z,15.10
2018-04-07T20:28:41.990Z,15.52
2018-04-07T20:31:44.548Z,15.41
2018-04-07T20:34:47.101Z,15.26
2018-04-07T20:37:49.690Z,15.52
2018-04-07T20:40:56.024Z,15.41
2018-04-07T20:43:58.579Z,15.31
2018-04-07T20:47:01.066Z,15.27
2018-04-07T20:50:03.619Z,15.36
2018-04-07T20:53:06.138Z,15.24
2018-04-07T20:56:08.662Z,15.49
2018-04-07T20:59:11.207Z,15.45
2018-04-07T21:02:13.724Z,15.39
2018-04-07T21:05:16.238Z,15.46
2018-04-07T21:08:18.864Z,15.33
2018-04-07T21:11:21.382Z,15.39
2018-04-07T21:14:24.095Z,15.39
2018-04-07T21:17:26.626Z,15.45
2018-04-07T21:20:29.132Z,15.30
2018-04-07T21:23:31.635Z,14.96
2018-04-07T21:26:34.129Z,14.81
2018-04-07T21:29:36.634Z,14.69
2018-04-07T21:32:39.159Z,14.69
2018-04-07T21:35:41.651Z,14.89
2018-04-07T21:38:44.228Z,14.86
2018-04-07T21:41:46.754Z,14.68
2018-04-07T21:44:49.233Z,14.40
2018-04-07T21:47:51.713Z,14.49
2018-04-07T21:50:54.243Z,14.42
2018-04-07T21:53:56.738Z,14.29
2018-04-07T21:56:59.254Z,14.39
2018-04-07T22:00:01.763Z,14.29
2018-04-07T22:03:04.315Z,14.54
2018-04-07T22:06:07.099Z,14.66
2018-04-07T22:09:09.649Z,14.77
2018-04-07T22:12:12.112Z,14.72
2018-04-07T22:15:14.657Z,15.10
2018-04-07T22:18:17.245Z,15.09
2018-04-07T22:21:19.820Z,15.12
2018-04-07T22:24:22.344Z,14.99
2018-04-07T22:27:24.874Z,14.93
2018-04-07T22:30:27.391Z,14.80
2018-04-07T22:33:29.872Z,14.86
2018-04-07T22:36:32.455Z,14.92
2018-04-07T22:39:34.975Z,14.92
2018-04-07T22:42:37.455Z,14.80
2018-04-07T22:45:40.003Z,14.65
2018-04-07T22:48:42.530Z,14.34
2018-04-07T22:51:45.049Z,14.45
2018-04-07T22:54:47.560Z,14.54
2018-04-07T22:57:50.088Z,14.65
2018-04-07T23:00:52.661Z,14.64
2018-04-07T23:03:55.213Z,14.75
2018-04-07T23:06:57.675Z,14.88
2018-04-07T23:10:00.217Z,15.46
2018-04-07T23:13:02.754Z,15.47
2018-04-07T23:16:05.202Z,15.28
2018-04-07T23:19:09.235Z,15.09
2018-04-07T23:22:12.537Z,14.78
2018-04-07T23:25:15.097Z,15.10
2018-04-07T23:28:17.586Z,14.74
2018-04-07T23:31:20.139Z,14.49
2018-04-07T23:34:22.629Z,14.47
2018-04-07T23:37:25.129Z,14.27
2018-04-07T23:40:27.639Z,14.18
2018-04-07T23:43:30.153Z,14.24
2018-04-07T23:46:33.968Z,14.18
2018-04-07T23:49:36.506Z,14.09
2018-04-07T23:52:39.544Z,14.05
2018-04-07T23:55:42.074Z,13.91
2018-04-07T23:58:44.641Z,14.06
